Cleveland, Ohio
Traffic Map
Current Weather Conditions
Cleveland, Ohio
Clear
Clear
23°
Feels Like: 23°
Wind Chill: 23° Ceiling: Unl
Heat Index: 23° Visibility: 10mi
Dew Point: 11° Wind: 5mph
Humidity: 46% Direction: 330° (NNW)
Pressure: 30.01in Gusts: 0mph
Raw Report DataKBKL 041953Z 33004KT 10SM CLR 23/11 A3001 RMK AO2 SLP159 T02330111
Traffic Incident Summary
Active as of:
Severity:
Category:
InformationThere was an issue retrieving the traffic information for this location. Please try a different location or try again shortly.
Advertisements
Track Severe Weather on mobile